Time;durP1;ratioP1;P1;durP2;ratioP2;P2;SDS_P1;SDS_P2;PMS_P1;PMS_P2;Temp;Humidity;BMP_temperature;BMP_pressure;BME280_temperature;BME280_humidity;BME280_pressure;Samples;Min_cycle;Max_cycle;Signal;HPM_P1;HPM_P2
2021/07/21 00:01:49;;;;;;;14.45;13.00;;;15.30;99.90;;;16.16;81.26;98343.03;5202173;28;20221;-62
2021/07/21 00:04:23;;;;;;;13.00;11.70;;;15.30;99.90;;;16.21;80.72;98348.41;5205169;28;20201;-63
2021/07/21 00:07:01;;;;;;;13.20;11.80;;;15.30;99.90;;;16.23;80.73;98349.38;5205437;28;20198;-62
2021/07/21 00:09:35;;;;;;;13.70;12.30;;;15.30;99.90;;;16.22;80.51;98352.75;5204980;28;20684;-63
2021/07/21 00:15:00;;;;;;;15.98;12.70;;;15.20;99.90;;;16.04;81.70;98342.53;5204811;28;20194;-63
2021/07/21 00:17:34;;;;;;;14.05;12.60;;;15.20;99.90;;;16.07;81.09;98342.66;5203699;28;20218;-62
2021/07/21 00:20:10;;;;;;;13.77;12.38;;;15.20;99.90;;;16.10;81.26;98340.22;5204975;28;20572;-63
2021/07/21 00:22:45;;;;;;;14.45;12.95;;;15.20;99.90;;;16.13;81.26;98345.50;5204980;28;20220;-63
2021/07/21 00:25:20;;;;;;;15.25;13.15;;;15.20;99.90;;;16.11;81.34;98349.72;5205187;28;20304;-62
2021/07/21 00:27:53;;;;;;;13.95;12.50;;;15.20;99.90;;;16.10;80.95;98339.34;5204351;28;20196;-62
2021/07/21 00:30:26;;;;;;;13.50;12.20;;;15.20;99.90;;;16.01;80.93;98342.41;5204003;28;20227;-62
2021/07/21 00:32:59;;;;;;;13.93;12.43;;;15.10;99.90;;;16.04;80.88;98346.81;5204471;28;20244;-62
2021/07/21 00:35:32;;;;;;;13.88;12.50;;;15.10;99.90;;;16.01;80.73;98342.41;5205444;28;20201;-62
2021/07/21 00:38:05;;;;;;;14.32;12.82;;;15.10;99.90;;;15.93;81.42;98342.06;5204902;28;20229;-62
2021/07/21 00:40:40;;;;;;;14.60;13.10;;;15.00;99.90;;;15.91;81.54;98341.13;5204935;28;20218;-62
2021/07/21 00:43:13;;;;;;;13.93;12.52;;;15.10;99.90;;;15.92;81.67;98342.00;5204005;28;20189;-62
2021/07/21 00:45:46;;;;;;;14.55;13.05;;;15.00;99.90;;;15.83;82.03;98334.75;5205337;28;20201;-62
2021/07/21 00:48:20;;;;;;;14.20;12.73;;;15.00;99.90;;;15.76;81.36;98328.41;5204211;28;20284;-62
2021/07/21 00:50:55;;;;;;;14.68;12.65;;;14.90;99.90;;;15.69;81.94;98334.13;5204987;28;20312;-62
2021/07/21 00:53:29;;;;;;;14.20;12.68;;;14.80;99.90;;;15.65;81.80;98331.31;5204531;28;20237;-62
2021/07/21 00:56:04;;;;;;;14.13;12.73;;;14.70;99.90;;;15.71;80.76;98331.63;5204323;28;20293;-62
2021/07/21 00:58:37;;;;;;;14.57;12.20;;;14.70;99.90;;;15.70;82.19;98324.69;5204661;28;20223;-62
2021/07/21 01:01:15;;;;;;;14.88;12.88;;;14.80;99.90;;;15.61;81.54;98325.13;5204099;28;20218;-62
2021/07/21 01:03:48;;;;;;;14.27;12.75;;;14.60;99.90;;;15.53;81.94;98326.50;5204159;28;20577;-62
2021/07/21 01:06:21;;;;;;;14.38;12.98;;;14.60;99.90;;;15.48;82.35;98315.09;5204838;28;20574;-62
2021/07/21 01:08:55;;;;;;;13.80;12.32;;;14.60;99.90;;;15.40;81.97;98319.03;5204433;28;20204;-62
2021/07/21 01:11:35;;;;;;;13.55;12.15;;;14.50;99.90;;;15.40;82.88;98313.88;5204180;28;20222;-62
2021/07/21 01:14:17;;;;;;;14.30;12.90;;;14.50;99.90;;;15.41;83.03;98315.63;5207613;28;20202;-62
2021/07/21 01:16:56;;;;;;;13.70;12.30;;;14.50;99.90;;;15.42;82.76;98320.84;5208603;28;20643;-62
2021/07/21 01:20:06;;;;;;;14.20;12.52;;;14.60;99.90;;;15.44;82.34;98315.78;5207886;28;20272;-62
2021/07/21 01:22:43;;;;;;;14.52;12.73;;;14.50;99.90;;;15.44;82.72;98315.78;5208329;28;20204;-62
2021/07/21 01:25:19;;;;;;;13.18;11.85;;;14.60;99.90;;;15.46;82.13;98316.72;5208291;28;20284;-62
2021/07/21 01:27:55;;;;;;;13.45;12.05;;;14.60;99.90;;;15.38;82.18;98315.50;5201500;28;20197;-62
2021/07/21 01:30:32;;;;;;;13.50;12.10;;;14.50;99.90;;;15.28;82.89;98316.75;5208244;28;20228;-62
2021/07/21 01:33:09;;;;;;;13.88;12.35;;;14.40;99.90;;;15.29;82.78;98308.22;5207889;28;20198;-62
2021/07/21 01:35:51;;;;;;;13.68;12.27;;;14.40;99.90;;;15.23;82.72;98306.25;5208314;28;20204;-61
2021/07/21 01:38:29;;;;;;;14.27;12.82;;;14.40;99.90;;;15.24;82.78;98312.28;5207897;28;20658;-62
2021/07/21 01:41:10;;;;;;;14.13;12.73;;;14.40;99.90;;;15.25;83.36;98314.03;5207693;28;20228;-62
2021/07/21 01:43:49;;;;;;;13.85;12.45;;;14.40;99.90;;;15.27;83.24;98315.88;5195168;28;20320;-62
2021/07/21 01:46:23;;;;;;;13.63;12.23;;;14.50;99.90;;;15.27;83.07;98305.56;5208323;28;20292;-62
2021/07/21 01:48:59;;;;;;;12.65;11.43;;;14.40;99.90;;;15.23;83.23;98307.97;5206892;28;20208;-62
2021/07/21 01:51:34;;;;;;;14.40;12.90;;;14.40;99.90;;;15.24;83.41;98313.16;5207233;28;20233;-62
2021/07/21 01:54:10;;;;;;;15.20;12.52;;;14.40;99.90;;;15.30;82.90;98305.72;5187606;28;20348;-62
2021/07/21 01:56:44;;;;;;;13.57;12.20;;;14.40;99.90;;;15.32;83.01;98313.53;5210897;28;20283;-62
2021/07/21 01:59:20;;;;;;;14.00;12.52;;;14.40;99.90;;;15.26;82.44;98310.69;5208556;28;20572;-62
2021/07/21 02:01:54;;;;;;;13.32;11.93;;;14.40;99.90;;;15.24;82.84;98318.31;5207022;28;20220;-61
2021/07/21 02:04:30;;;;;;;12.55;11.25;;;14.30;99.90;;;15.20;82.74;98302.66;5207567;28;20204;-62
2021/07/21 02:07:07;;;;;;;13.90;12.48;;;14.20;99.90;;;15.19;83.15;98312.06;5207287;28;20684;-62
2021/07/21 02:09:41;;;;;;;13.27;11.88;;;14.30;99.90;;;15.22;82.75;98314.81;5207841;28;20208;-62
2021/07/21 02:12:15;;;;;;;14.20;12.80;;;14.30;99.90;;;15.14;83.45;98305.84;5207202;28;20308;-62
2021/07/21 02:14:51;;;;;;;14.38;12.88;;;14.30;99.90;;;15.11;83.06;98303.13;5206874;28;20204;-62
2021/07/21 02:17:29;;;;;;;13.82;12.30;;;14.20;99.90;;;15.06;82.49;98310.63;5207103;28;20695;-62
2021/07/21 02:20:05;;;;;;;13.35;12.10;;;14.20;99.90;;;15.05;82.59;98310.53;5206880;28;20209;-61
2021/07/21 02:22:41;;;;;;;13.10;11.82;;;14.20;99.90;;;14.95;83.88;98308.38;5203725;28;20684;-62
2021/07/21 02:25:15;;;;;;;13.75;12.35;;;14.10;99.90;;;14.91;83.04;98307.34;5206939;28;20565;-62
2021/07/21 02:27:48;;;;;;;14.60;12.55;;;14.00;99.90;;;14.86;83.10;98304.53;5207145;28;20193;-62
2021/07/21 02:30:24;;;;;;;13.40;12.10;;;14.00;99.90;;;14.88;83.35;98302.06;5207122;28;20666;-62
2021/07/21 02:33:04;;;;;;;14.35;12.68;;;14.00;99.90;;;14.92;84.02;98303.06;5206800;28;20209;-60
2021/07/21 02:35:38;;;;;;;13.57;12.23;;;14.10;99.90;;;14.93;83.50;98304.81;5186576;28;20210;-62
2021/07/21 02:38:11;;;;;;;14.82;11.93;;;14.10;99.90;;;14.91;82.96;98306.44;5186758;28;20199;-62
2021/07/21 02:40:45;;;;;;;14.35;12.70;;;14.10;99.90;;;14.90;83.23;98309.84;5206949;28;20220;-62
2021/07/21 02:43:18;;;;;;;12.98;11.65;;;14.00;99.90;;;14.87;83.66;98308.00;5207020;28;20226;-62
2021/07/21 02:45:53;;;;;;;13.52;12.25;;;14.00;99.90;;;14.78;84.04;98310.13;5206531;28;20700;-62
2021/07/21 02:48:26;;;;;;;13.75;12.35;;;13.90;99.90;;;14.72;83.71;98304.69;5204791;28;20189;-62
2021/07/21 02:51:03;;;;;;;14.10;12.77;;;13.90;99.90;;;14.75;84.17;98305.72;5185962;28;20236;-62
2021/07/21 02:53:40;;;;;;;14.25;12.68;;;13.90;99.90;;;14.78;83.57;98308.44;5186455;28;20201;-62
2021/07/21 02:56:15;;;;;;;15.05;11.85;;;13.90;99.90;;;14.74;83.91;98309.13;5189701;28;20204;-61
2021/07/21 02:58:54;;;;;;;14.07;12.57;;;13.90;99.90;;;14.67;84.39;98306.16;5206022;28;20268;-62
2021/07/21 03:01:33;;;;;;;13.90;12.48;;;13.80;99.90;;;14.66;84.22;98305.28;5206180;28;20222;-62
2021/07/21 03:04:07;;;;;;;13.93;12.50;;;13.80;99.90;;;14.70;83.70;98304.63;5205900;28;20190;-62
2021/07/21 03:06:41;;;;;;;13.63;11.98;;;13.80;99.90;;;14.76;83.63;98302.31;5206624;28;20301;-61
2021/07/21 03:09:15;;;;;;;13.55;12.25;;;13.80;99.90;;;14.67;83.97;98304.47;5205479;28;20205;-62
2021/07/21 03:11:52;;;;;;;14.02;12.25;;;13.80;99.90;;;14.67;83.77;98309.63;5206432;28;20623;-62
2021/07/21 03:14:25;;;;;;;13.98;12.52;;;13.80;99.90;;;14.62;83.04;98314.56;5206755;28;20206;-61
2021/07/21 03:17:03;;;;;;;13.48;12.18;;;13.80;99.90;;;14.64;83.75;98309.47;5206288;28;20676;-62
2021/07/21 03:19:39;;;;;;;13.27;11.77;;;13.80;99.90;;;14.63;83.68;98321.47;5204430;28;20308;-62
2021/07/21 03:22:16;;;;;;;14.63;13.10;;;13.80;99.90;;;14.66;83.71;98315.59;5205639;28;20235;-61
2021/07/21 03:24:51;;;;;;;13.63;12.27;;;13.80;99.90;;;14.67;83.57;98319.91;5206260;28;20245;-62
2021/07/21 03:27:25;;;;;;;13.80;12.30;;;13.80;99.90;;;14.62;83.26;98319.72;5205839;28;20205;-61
2021/07/21 03:30:00;;;;;;;13.95;11.68;;;13.70;99.90;;;14.59;83.43;98328.94;5205751;28;20288;-62
2021/07/21 03:32:35;;;;;;;14.90;12.60;;;13.70;99.90;;;14.64;83.39;98333.50;5205402;28;20243;-62
2021/07/21 03:35:09;;;;;;;13.18;11.77;;;13.60;99.90;;;14.61;83.08;98338.50;5204937;28;20681;-61
2021/07/21 03:37:46;;;;;;;12.88;11.52;;;13.60;99.90;;;14.63;82.76;98336.00;5205290;28;20669;-62
2021/07/21 03:40:20;;;;;;;13.18;11.50;;;13.60;99.90;;;14.66;82.41;98335.28;5205581;28;20225;-62
2021/07/21 03:42:54;;;;;;;12.90;11.60;;;13.60;99.90;;;14.62;82.86;98344.53;5205209;28;20190;-61
2021/07/21 03:45:32;;;;;;;14.07;12.18;;;13.60;99.90;;;14.54;82.97;98340.72;5205886;28;20194;-62
2021/07/21 03:48:08;;;;;;;13.30;11.90;;;13.60;99.90;;;14.53;83.59;98338.94;5204836;28;20194;-62
2021/07/21 03:50:42;;;;;;;14.32;12.82;;;13.60;99.90;;;14.46;83.33;98344.56;5205253;28;20701;-62
2021/07/21 03:53:16;;;;;;;13.98;12.55;;;13.60;99.90;;;14.38;83.52;98344.16;5205622;28;20193;-62
2021/07/21 03:55:49;;;;;;;13.93;12.48;;;13.50;99.90;;;14.36;83.38;98348.34;5205521;28;20198;-62
2021/07/21 03:58:22;;;;;;;14.05;12.70;;;13.50;99.90;;;14.30;82.97;98353.19;5205681;28;20578;-62
2021/07/21 04:00:56;;;;;;;14.30;12.45;;;13.40;99.90;;;14.29;84.30;98352.31;5203743;28;20605;-62
2021/07/21 04:03:32;;;;;;;14.40;12.40;;;13.40;99.90;;;14.31;83.27;98348.13;5204039;28;20198;-61
2021/07/21 04:06:07;;;;;;;14.15;11.80;;;13.50;99.90;;;14.26;84.48;98356.44;5204330;28;20292;-61
2021/07/21 04:08:42;;;;;;;13.10;11.52;;;13.40;99.90;;;14.31;84.57;98357.53;5204400;28;20198;-61
2021/07/21 04:11:16;;;;;;;14.07;11.15;;;13.40;99.90;;;14.41;83.62;98360.63;5205173;28;20295;-62
2021/07/21 04:13:50;;;;;;;12.48;11.35;;;13.50;99.90;;;14.42;83.28;98362.41;5204861;28;20661;-62
2021/07/21 04:16:23;;;;;;;12.88;11.55;;;13.60;99.90;;;14.50;84.26;98359.31;5204532;28;20683;-62
2021/07/21 04:18:58;;;;;;;12.98;11.73;;;13.60;99.90;;;14.51;83.70;98364.56;5203763;28;20684;-61
2021/07/21 04:21:32;;;;;;;14.55;12.98;;;13.60;99.90;;;14.53;83.71;98362.09;5203901;28;20231;-62
2021/07/21 04:24:10;;;;;;;13.10;11.85;;;13.60;99.90;;;14.62;83.18;98367.69;5204630;28;20201;-62
2021/07/21 04:26:44;;;;;;;13.50;12.23;;;13.60;99.90;;;14.61;83.19;98366.81;5204711;28;20683;-61
2021/07/21 04:29:19;;;;;;;14.35;12.50;;;13.70;99.90;;;14.60;83.12;98371.88;5204903;28;20202;-62
2021/07/21 04:31:54;;;;;;;14.02;12.05;;;13.70;99.90;;;14.62;83.06;98375.41;5204980;28;20218;-61
2021/07/21 04:34:29;;;;;;;13.20;11.90;;;13.70;99.90;;;14.58;83.73;98371.78;5203855;28;20201;-61
2021/07/21 04:37:03;;;;;;;14.55;12.48;;;13.70;99.90;;;14.59;82.99;98370.09;5203006;28;20198;-62
2021/07/21 04:39:37;;;;;;;12.23;11.02;;;13.70;99.90;;;14.62;83.68;98370.25;5202623;28;20601;-61
2021/07/21 04:42:10;;;;;;;12.65;11.23;;;13.70;99.90;;;14.64;82.86;98373.78;5203372;28;20241;-62
2021/07/21 04:44:46;;;;;;;12.68;11.45;;;13.60;99.90;;;14.67;82.31;98376.50;5202060;28;20260;-62
2021/07/21 04:47:20;;;;;;;13.45;11.80;;;13.70;99.90;;;14.67;82.27;98376.50;5205860;28;20292;-62
2021/07/21 04:49:54;;;;;;;13.45;12.05;;;13.70;99.90;;;14.62;83.26;98372.81;5208428;28;20194;-61
2021/07/21 04:52:28;;;;;;;13.13;11.52;;;13.70;99.90;;;14.64;82.72;98373.78;5208768;28;20316;-62
2021/07/21 04:55:02;;;;;;;13.43;12.10;;;13.70;99.90;;;14.72;82.39;98371.59;5207912;28;20209;-62
2021/07/21 04:57:35;;;;;;;13.95;12.43;;;13.80;99.90;;;14.72;82.26;98372.47;5208224;28;20194;-62
2021/07/21 05:00:10;;;;;;;12.82;11.63;;;13.70;99.90;;;14.83;81.79;98371.31;5208724;28;20222;-62
2021/07/21 05:02:43;;;;;;;14.07;12.63;;;13.90;99.90;;;14.96;82.46;98370.19;5209110;28;20211;-62
2021/07/21 05:05:17;;;;;;;13.38;12.07;;;14.00;99.90;;;15.01;83.31;98371.31;5208125;28;20201;-62
2021/07/21 05:07:50;;;;;;;13.70;12.30;;;14.10;99.90;;;15.25;82.15;98370.69;5207934;28;20291;-61
2021/07/21 05:10:24;;;;;;;14.30;12.80;;;14.30;99.90;;;15.51;81.07;98374.50;5208979;28;20712;-62
2021/07/21 05:12:57;;;;;;;14.82;13.25;;;14.50;99.90;;;15.74;80.68;98371.31;5208354;28;20202;-62
2021/07/21 05:15:31;;;;;;;13.77;12.38;;;14.80;99.90;;;16.13;78.53;98375.56;5206177;28;20666;-62
2021/07/21 05:18:04;;;;;;;14.80;12.93;;;15.00;99.90;;;16.41;77.49;98380.22;5208470;28;20205;-61
2021/07/21 05:20:39;;;;;;;14.73;12.48;;;15.30;99.90;;;16.66;76.64;98384.72;5208023;28;20226;-62
2021/07/21 05:23:13;;;;;;;13.80;12.32;;;15.50;99.90;;;16.79;75.88;98393.88;5208916;28;20695;-61
2021/07/21 05:25:46;;;;;;;13.32;11.93;;;15.70;99.90;;;17.33;74.73;98382.28;5206813;28;20676;-62
2021/07/21 05:28:19;;;;;;;13.85;12.50;;;16.10;99.90;;;18.02;71.17;98379.72;5208516;28;20205;-62
2021/07/21 05:30:52;;;;;;;13.25;11.82;;;16.70;99.90;;;18.63;68.98;98382.72;5203984;28;20224;-62
2021/07/21 05:33:25;;;;;;;12.90;11.70;;;17.10;99.90;;;19.23;67.10;98379.47;5207379;28;20194;-62
2021/07/21 05:36:00;;;;;;;12.65;11.45;;;17.70;99.90;;;19.74;64.99;98385.41;5207137;28;20676;-62
2021/07/21 05:38:34;;;;;;;12.80;11.50;;;18.10;99.90;;;20.14;63.35;98386.53;5207479;28;20571;-63
2021/07/21 05:41:09;;;;;;;13.25;11.88;;;18.50;99.90;;;20.61;61.30;98394.75;5205153;28;20236;-62
2021/07/21 05:43:42;;;;;;;12.52;11.13;;;18.70;99.90;;;21.05;59.63;98392.38;5207133;28;20289;-62
2021/07/21 05:46:16;;;;;;;13.02;11.30;;;18.90;99.90;;;21.35;59.13;98386.16;5207748;28;20200;-62
2021/07/21 05:48:49;;;;;;;13.25;11.38;;;19.30;99.90;;;21.65;57.95;98382.50;5208094;28;20205;-62
2021/07/21 05:51:23;;;;;;;12.98;11.35;;;19.50;99.90;;;21.89;57.11;98384.75;5207605;28;20225;-62
2021/07/21 05:53:57;;;;;;;13.10;11.75;;;19.80;99.90;;;21.92;56.57;98380.50;5206045;28;20208;-62
2021/07/21 05:56:30;;;;;;;12.80;11.50;;;19.80;99.90;;;22.15;55.89;98382.66;5207037;28;20198;-62
2021/07/21 05:59:04;;;;;;;12.75;11.38;;;19.80;99.90;;;22.29;55.21;98382.97;5206544;28;20204;-62
2021/07/21 06:01:37;;;;;;;12.50;11.23;;;20.00;99.90;;;22.25;55.44;98380.31;5207570;28;20236;-62
2021/07/21 06:04:11;;;;;;;13.75;12.35;;;20.00;99.90;;;22.87;54.64;98392.72;5207554;28;20349;-62
2021/07/21 06:06:45;;;;;;;14.65;11.75;;;20.30;99.90;;;22.82;53.26;98394.34;5195075;28;20204;-62
2021/07/21 06:09:18;;;;;;;12.93;11.63;;;20.60;99.90;;;22.79;53.65;98394.31;5207211;28;20570;-62
2021/07/21 06:11:51;;;;;;;13.70;12.20;;;20.40;99.90;;;22.80;52.83;98400.41;5206334;28;20301;-62
2021/07/21 06:14:25;;;;;;;13.68;12.25;;;20.40;99.90;;;22.80;54.08;98396.06;5205877;28;20281;-62
2021/07/21 06:16:59;;;;;;;14.35;12.85;;;20.30;99.90;;;22.67;53.33;98399.31;5201168;28;20202;-62
2021/07/21 06:19:33;;;;;;;13.65;11.75;;;20.50;99.90;;;23.33;52.79;98398.69;5205827;28;20634;-62
2021/07/21 06:22:08;;;;;;;15.18;11.85;;;20.80;99.90;;;23.57;52.33;98402.50;5205902;28;20259;-63
2021/07/21 06:24:42;;;;;;;14.07;11.50;;;21.00;99.90;;;23.87;50.89;98409.94;5205838;28;20688;-62
2021/07/21 06:27:15;;;;;;;13.23;11.63;;;21.20;99.90;;;24.26;50.23;98404.28;5205563;28;20614;-62
2021/07/21 06:29:48;;;;;;;12.57;11.40;;;21.40;99.90;;;24.79;49.05;98408.38;5205474;28;20197;-63
2021/07/21 06:32:21;;;;;;;13.00;11.70;;;21.80;99.90;;;24.71;49.73;98418.75;5205574;28;20221;-62
2021/07/21 06:34:54;;;;;;;12.57;11.02;;;22.00;99.90;;;25.21;47.80;98416.59;5195788;28;20207;-62
2021/07/21 06:37:28;;;;;;;11.82;10.60;;;22.10;99.90;;;25.42;47.45;98419.38;5204416;28;20198;-63
2021/07/21 06:40:02;;;;;;;13.07;11.65;;;22.50;99.90;;;25.33;47.57;98421.94;5205266;28;20200;-62
2021/07/21 06:42:35;;;;;;;11.25;10.13;;;22.60;99.90;;;25.90;47.01;98424.91;5204992;28;20260;-63
2021/07/21 06:45:09;;;;;;;12.27;11.10;;;23.00;99.90;;;25.83;46.49;98429.25;5204614;28;20236;-63
2021/07/21 06:47:42;;;;;;;11.95;10.77;;;23.10;99.00;;;26.13;45.87;98422.44;5194569;28;20661;-63
2021/07/21 06:50:16;;;;;;;12.27;10.98;;;23.20;99.00;;;25.97;46.12;98431.94;5205233;28;20324;-63
2021/07/21 06:52:51;;;;;;;12.30;11.00;;;23.50;99.00;;;26.56;44.87;98428.72;5205292;28;20197;-62
2021/07/21 06:55:24;;;;;;;11.95;10.73;;;23.60;98.20;;;26.63;44.68;98430.47;5203943;28;20211;-63
2021/07/21 06:57:58;;;;;;;12.27;11.05;;;23.80;97.90;;;26.98;43.72;98434.00;5205116;28;20197;-63
2021/07/21 07:00:31;;;;;;;11.60;10.52;;;24.00;97.70;;;27.29;42.98;98438.41;5185153;28;20765;-63
2021/07/21 07:03:05;;;;;;;11.98;10.73;;;24.50;96.70;;;27.28;42.76;98431.44;5204639;28;20198;-63
2021/07/21 07:05:38;;;;;;;11.55;10.43;;;24.70;96.30;;;27.28;43.14;98433.19;5204855;28;20208;-63
2021/07/21 07:08:12;;;;;;;11.48;10.48;;;24.80;96.10;;;27.01;42.70;98436.63;5204215;28;20205;-63
2021/07/21 07:10:45;;;;;;;11.43;10.32;;;24.30;96.20;;;27.56;42.33;98434.91;5203409;28;20217;-64
2021/07/21 07:13:18;;;;;;;11.40;10.30;;;24.60;96.20;;;27.19;42.53;98447.19;5206817;28;20206;-63
2021/07/21 07:15:51;;;;;;;11.55;10.35;;;24.60;95.90;;;27.62;42.42;98439.28;5222201;28;20201;-63
2021/07/21 07:18:25;;;;;;;11.48;10.32;;;24.70;95.50;;;27.97;41.79;98446.22;5204551;28;20217;-63
2021/07/21 07:20:58;;;;;;;11.25;10.25;;;25.10;95.70;;;27.60;41.75;98438.41;5204244;28;20227;-63
2021/07/21 07:23:32;;;;;;;10.48;9.48;;;25.10;95.20;;;27.67;41.61;98434.91;5204172;28;20293;-63
2021/07/21 07:26:06;;;;;;;11.02;9.93;;;25.10;95.00;;;28.09;41.51;98435.66;5204054;28;20240;-63
2021/07/21 07:28:39;;;;;;;12.07;10.13;;;25.20;95.30;;;27.88;41.01;98441.00;5204128;28;20284;-63
2021/07/21 07:31:12;;;;;;;10.93;9.93;;;25.50;94.40;;;28.30;41.25;98438.22;5204219;28;20223;-63
2021/07/21 07:33:45;;;;;;;10.95;9.85;;;25.60;94.40;;;28.51;39.93;98431.13;5204002;28;20202;-63
2021/07/21 07:36:18;;;;;;;11.13;9.77;;;26.00;94.00;;;28.90;39.18;98424.75;5204342;28;20190;-63
2021/07/21 07:38:52;;;;;;;11.25;10.25;;;26.20;93.50;;;29.37;38.70;98420.00;5203906;28;20201;-63
2021/07/21 07:41:26;;;;;;;11.38;10.32;;;26.40;93.20;;;29.50;38.90;98426.88;5214133;28;20227;-63
2021/07/21 07:43:59;;;;;;;10.55;9.55;;;26.50;93.30;;;29.75;38.35;98426.66;5203204;28;20209;-63
2021/07/21 07:46:32;;;;;;;10.52;9.63;;;26.50;93.30;;;29.70;38.05;98413.53;5203521;28;20435;-63
2021/07/21 07:49:06;;;;;;;10.15;9.18;;;26.70;92.90;;;30.27;37.15;98424.31;5195219;28;20256;-63
2021/07/21 07:51:40;;;;;;;11.63;10.18;;;27.00;92.40;;;30.89;35.97;98416.44;5204022;28;20239;-63
2021/07/21 07:54:15;;;;;;;10.30;9.40;;;26.90;92.50;;;30.78;36.64;98412.19;5202723;28;20204;-63
2021/07/21 07:56:49;;;;;;;10.18;9.23;;;27.10;92.60;;;30.72;36.31;98415.78;5204547;28;20284;-63
2021/07/21 07:59:22;;;;;;;10.65;9.55;;;27.30;92.00;;;30.62;36.62;98404.50;5203482;28;20206;-63
2021/07/21 08:01:58;;;;;;;10.75;9.77;;;27.30;92.10;;;30.74;36.54;98408.72;5188487;28;20213;-63
2021/07/21 08:04:31;;;;;;;10.52;9.52;;;27.50;92.00;;;31.12;36.09;98400.22;5203991;28;20838;-63
2021/07/21 08:07:04;;;;;;;9.13;8.35;;;27.60;92.10;;;31.91;34.92;98409.41;5202172;28;20202;-63
2021/07/21 08:09:39;;;;;;;10.32;8.80;;;28.00;91.20;;;32.29;33.91;98405.97;5201708;28;20686;-63
2021/07/21 08:12:12;;;;;;;9.48;8.52;;;28.20;90.60;;;32.55;32.99;98408.06;5203337;28;20212;-63
2021/07/21 08:14:45;;;;;;;9.65;8.65;;;28.30;90.00;;;32.73;32.75;98393.53;5202983;28;20196;-63
2021/07/21 08:17:19;;;;;;;10.00;9.10;;;28.70;89.50;;;31.81;33.60;98409.56;5203012;28;20200;-63
2021/07/21 08:19:52;;;;;;;10.10;8.38;;;28.60;88.10;;;30.64;34.52;98404.47;5203121;28;20208;-64
2021/07/21 08:22:25;;;;;;;9.32;8.52;;;28.20;87.00;;;30.37;33.65;98408.38;5202498;28;20221;-63
2021/07/21 08:24:59;;;;;;;9.00;8.13;;;28.20;84.90;;;30.41;35.67;98408.28;5203533;28;20200;-64
2021/07/21 08:27:32;;;;;;;9.60;8.77;;;28.30;87.80;;;30.23;36.10;98403.28;5203056;28;20196;-64
2021/07/21 08:30:12;;;;;;;9.57;8.77;;;28.40;88.10;;;30.02;35.06;98404.41;5203526;28;20203;-63
2021/07/21 08:32:48;;;;;;;9.27;8.30;;;28.10;85.90;;;30.01;34.23;98408.78;5203243;28;20192;-63
2021/07/21 08:35:24;;;;;;;8.77;7.97;;;28.20;83.50;;;30.07;33.22;98407.84;5203553;28;20675;-64
2021/07/21 08:37:58;;;;;;;9.45;8.13;;;28.10;82.80;;;30.02;35.22;98407.91;5202950;28;20209;-63
2021/07/21 08:40:33;;;;;;;9.27;8.48;;;28.10;85.50;;;30.12;35.17;98402.50;5203350;28;20221;-63
2021/07/21 08:43:27;;;;;;;9.38;8.48;;;28.40;83.40;;;29.91;34.09;98399.25;5202607;28;20715;-63
2021/07/21 08:46:00;;;;;;;9.43;8.57;;;28.40;82.30;;;30.06;34.53;98406.09;5203680;28;20559;-63
2021/07/21 08:48:33;;;;;;;9.23;8.43;;;28.50;82.50;;;29.73;34.99;98402.06;5202375;28;20233;-63
2021/07/21 08:51:11;;;;;;;9.77;8.77;;;28.30;83.20;;;29.55;35.35;98401.34;5203379;28;20713;-63
2021/07/21 08:53:44;;;;;;;9.75;8.75;;;28.10;83.20;;;29.25;34.82;98404.31;5203254;28;20215;-63
2021/07/21 08:56:19;;;;;;;9.68;8.70;;;28.10;82.00;;;29.38;34.88;98396.25;5202862;28;20201;-63
2021/07/21 08:58:52;;;;;;;9.48;8.57;;;28.00;83.30;;;29.07;35.52;98400.06;5202695;28;20215;-63
2021/07/21 09:01:26;;;;;;;9.52;8.63;;;27.70;83.50;;;29.03;36.97;98393.94;5202160;28;20220;-63
2021/07/21 09:04:00;;;;;;;9.18;8.38;;;27.90;85.10;;;29.23;36.90;98396.41;5202398;28;20193;-63
2021/07/21 09:06:33;;;;;;;9.27;8.38;;;28.20;84.60;;;29.56;35.40;98392.59;5202046;28;20677;-63
2021/07/21 09:09:07;;;;;;;8.95;8.18;;;28.80;81.40;;;29.82;34.56;98394.97;5200601;28;20233;-63
2021/07/21 09:11:42;;;;;;;10.40;8.90;;;29.00;80.30;;;29.53;34.69;98395.25;5201349;28;20221;-63
2021/07/21 09:14:15;;;;;;;8.90;8.10;;;28.70;80.20;;;29.43;34.94;98393.59;5201429;28;20189;-63
2021/07/21 09:17:10;;;;;;;9.20;8.30;;;28.20;82.10;;;29.42;35.54;98395.34;5201927;28;20296;-63
2021/07/21 09:19:46;;;;;;;9.30;8.40;;;28.40;82.50;;;29.59;36.14;98395.19;5202141;28;20205;-63
2021/07/21 09:22:21;;;;;;;8.88;7.97;;;28.70;83.10;;;29.73;34.72;98400.34;5202792;28;20244;-64
2021/07/21 09:25:15;;;;;;;9.43;8.52;;;28.60;80.40;;;29.67;34.44;98394.25;5204079;28;20636;-64
2021/07/21 09:27:52;;;;;;;9.82;8.80;;;28.60;80.40;;;29.65;34.26;98389.00;5203013;28;20196;-64
2021/07/21 09:30:30;;;;;;;9.55;8.63;;;28.60;79.90;;;29.90;34.48;98389.56;5202395;28;20213;-64
2021/07/21 09:33:06;;;;;;;8.98;8.25;;;28.70;80.20;;;29.96;33.61;98396.53;5203518;28;20189;-64
2021/07/21 09:35:43;;;;;;;9.18;8.38;;;28.80;78.90;;;29.61;34.83;98396.00;5206897;28;20201;-64
2021/07/21 09:38:19;;;;;;;9.52;8.65;;;28.50;80.80;;;29.40;33.01;98393.63;5206285;28;20208;-65
2021/07/21 09:40:54;;;;;;;9.57;8.77;;;28.30;77.50;;;29.25;35.05;98393.78;5207166;28;20240;-64
2021/07/21 09:43:31;;;;;;;9.55;8.65;;;28.10;80.00;;;29.33;35.13;98389.28;5206111;28;20213;-65
2021/07/21 09:46:07;;;;;;;9.88;8.98;;;28.20;80.40;;;29.55;35.10;98393.44;5210301;28;20212;-65
2021/07/21 09:48:43;;;;;;;9.40;8.50;;;28.30;81.00;;;29.66;33.87;98395.16;5205529;28;20243;-64
2021/07/21 09:51:28;;;;;;;10.50;9.40;;;28.60;78.60;;;29.34;34.72;98398.94;5204378;28;20221;-64
2021/07/21 09:54:14;;;;;;;9.35;8.43;;;28.20;79.90;;;29.27;35.19;98395.47;5206155;28;20657;-64
2021/07/21 09:56:50;;;;;;;11.05;9.15;;;28.10;80.10;;;29.25;34.77;98399.91;5205944;28;20579;-64
2021/07/21 09:59:28;;;;;;;10.68;9.55;;;28.30;78.80;;;28.94;34.70;98399.25;5205947;28;20193;-64
2021/07/21 10:02:15;;;;;;;9.98;9.07;;;28.00;79.20;;;28.98;34.76;98396.56;5205692;28;20584;-64
2021/07/21 10:04:50;;;;;;;10.52;9.43;;;27.90;80.00;;;28.89;36.15;98395.78;5205916;28;20680;-65
2021/07/21 10:07:48;;;;;;;9.77;8.82;;;27.80;81.60;;;28.64;37.57;98395.06;5205542;28;20770;-64
2021/07/21 10:10:23;;;;;;;9.95;9.05;;;27.60;82.90;;;28.45;38.15;98403.09;5204703;28;20197;-64
2021/07/21 10:13:02;;;;;;;10.60;9.45;;;27.40;83.70;;;28.52;36.65;98399.53;5203933;28;20656;-64
2021/07/21 10:15:36;;;;;;;10.60;9.63;;;27.50;81.50;;;28.45;36.67;98400.47;5202614;28;20720;-64
2021/07/21 10:18:13;;;;;;;10.35;9.40;;;27.40;82.10;;;28.68;35.90;98404.72;5205953;28;20232;-64
2021/07/21 10:20:46;;;;;;;10.63;9.63;;;27.60;81.70;;;28.87;35.44;98394.91;5206172;28;20232;-64
2021/07/21 10:23:20;;;;;;;10.07;9.13;;;27.70;80.90;;;28.92;35.40;98393.13;5203387;28;20744;-65
2021/07/21 10:25:53;;;;;;;11.07;9.95;;;27.90;81.30;;;29.00;36.24;98393.06;5205440;28;20280;-65
2021/07/21 10:28:27;;;;;;;10.63;9.63;;;27.80;81.70;;;29.09;36.30;98383.34;5205501;28;20720;-64
2021/07/21 10:31:01;;;;;;;10.40;9.45;;;28.00;80.50;;;29.16;35.51;98384.19;5205314;28;20221;-64
2021/07/21 10:33:35;;;;;;;10.48;9.45;;;28.00;80.20;;;29.13;35.88;98382.47;5205751;28;20654;-64
2021/07/21 10:36:11;;;;;;;11.50;10.38;;;28.10;80.70;;;29.02;36.40;98380.78;5205543;28;20240;-64
2021/07/21 10:38:44;;;;;;;10.45;9.65;;;28.10;81.60;;;29.21;35.86;98377.09;5205575;28;20656;-64
2021/07/21 10:41:18;;;;;;;11.32;9.50;;;28.20;81.40;;;29.25;36.06;98373.56;5205461;28;20213;-64
2021/07/21 10:43:54;;;;;;;11.15;10.05;;;28.30;80.80;;;29.32;36.06;98375.25;5204719;28;20591;-64